Flight Track Log - Related Links

Times and Time Zones

All times are in EDT time to prevent confusion due to time zone crossing. See the SKW4764 flight status page for this flight to view local times or setup timezone preferences in your user account.

Time Position Orientation Groundspeed Altitude Reporting Facility
EDT Latitude Longitude Course Direction KTS MPH feet Rate Location/Type
Tue 05:35:22 PM 40.8242 -111.9819 13° North 186 214 5,500  Level Salt Center
Tue 05:36:22 PM 40.8814 -111.9878 356° North 211 243 7,500 1,722 Climbing Salt Center
Tue 05:37:17 PM 40.9461 -111.9961 354° North 243 280 8,800 1,641 Climbing Salt Center
Tue 05:38:00 PM 41.2205 -111.8167 North  Level FlightAware
Tue 05:38:19 PM 41.0247 -112.0042 356° North 280 322 10,700  Level Salt Center
Tue 05:39:00 PM 41.3276 -111.7391 37° Northeast  Level FlightAware
Tue 05:39:21 PM 41.0969 -111.9589 25° Northeast 295 339 12,500  Level Salt Center
Tue 05:40:00 PM 41.4406 -111.6778 13° North  Level FlightAware
Tue 05:40:23 PM 41.1736 -111.8925 33° Northeast 324 373 14,000  Level Salt Center
Tue 05:41:25 PM 41.2528 -111.8247 33° Northeast 335 386 15,500 1,403 Climbing Salt Center
Tue 05:42:27 PM 41.3428 -111.7864 18° North 355 409 16,900 1,210 Climbing Salt Center
Tue 05:43:29 PM 41.4442 -111.7950 356° North 365 420 18,000 1,258 Climbing Salt Center
Tue 05:44:31 PM 41.5461 -111.7978 359° North 368 423 19,500 968 Climbing Salt Center
Tue 05:45:33 PM 41.6472 -111.7983 360° North 366 421 20,000 677 Climbing Salt Center
Tue 05:46:35 PM 41.7703 -111.8261 350° North 376 433 20,900 871 Climbing Salt Center
Tue 05:47:37 PM 41.8689 -111.8675 343° North 372 428 21,800 927 Climbing Salt Center
Tue 05:48:38 PM 41.9717 -111.9092 343° North 383 441 22,800 829 Climbing Salt Center
Tue 05:49:40 PM 42.0744 -111.9503 343° North 384 442 23,500 774 Climbing Salt Center
Tue 05:50:42 PM 42.1783 -111.9928 343° North 389 448 24,400 774 Climbing Salt Center
Tue 05:51:44 PM 42.2819 -112.0344 343° North 389 448 25,100 677 Climbing Salt Center
Tue 05:52:46 PM 42.4078 -112.0853 343° North 394 453 25,800 677 Climbing Salt Center
Tue 05:53:48 PM 42.5150 -112.1292 343° North 401 461 26,500 537 Climbing Salt Center
Tue 05:54:49 PM 42.6222 -112.1731 343° North 402 463 26,900 488 Climbing Salt Center
Tue 05:55:51 PM 42.7325 -112.1636 North 420 483 27,500 677 Climbing Salt Center
Tue 05:56:53 PM 42.8589 -112.1203 14° North 422 486 28,300 584 Climbing Salt Center
Tue 05:58:00 PM 42.9709 -112.1785 339° North  Level FlightAware
Tue 05:58:56 PM 43.0975 -112.0400 339° North 427 491 29,300  Level Salt Center
Tue 05:59:58 PM 43.2097 -112.0394 360° North 421 484 29,800 484 Climbing Salt Center
Tue 06:01:00 PM 43.3333 -112.1061 339° North 426 490 30,300 488 Climbing Salt Center
Tue 06:02:01 PM 43.4403 -112.1592 340° North 424 488 30,800 488 Climbing Salt Center
Tue 06:03:03 PM 43.5461 -112.2167 339° North 425 489 31,300 532 Climbing Salt Center
Tue 06:04:05 PM 43.6711 -112.2794 340° North 427 491 31,900 339 Climbing Salt Center
Tue 06:05:07 PM 43.7783 -112.3356 339° North 428 493 32,000 49 Climbing Salt Center
Tue 06:06:08 PM 43.9061 -112.4031 339° North 435 501 32,000  Level Salt Center
Tue 06:07:10 PM 44.0206 -112.4625 340° North 450 518 32,000  Level Salt Center
Tue 06:08:12 PM 44.1358 -112.5253 339° North 459 528 32,000  Level Salt Center
Tue 06:09:13 PM 44.2694 -112.5969 339° North 459 528 32,000  Level Salt Center
Tue 06:10:15 PM 44.3864 -112.6597 339° North 463 533 32,000  Level Salt Center
Tue 06:11:16 PM 44.5206 -112.7306 339° North 463 533 32,000  Level Salt Center
Tue 06:12:18 PM 44.6336 -112.7928 339° North 460 529 32,000  Level Salt Center
Tue 06:13:20 PM 44.7453 -112.8550 338° Northwest 455 524 32,000  Level Salt Center
Tue 06:14:21 PM 44.8683 -112.9414 334° Northwest 445 512 32,000  Level Salt Center
Tue 06:15:23 PM 44.9822 -112.9936 342° North 445 512 32,000  Level Salt Center
Tue 06:16:24 PM 45.1164 -113.0606 341° North 452 520 32,000  Level Salt Center
Tue 06:17:26 PM 45.2292 -113.1211 339° North 452 520 32,000  Level Salt Center
Tue 06:18:27 PM 45.3419 -113.1850 338° Northwest 453 521 32,000  Level Salt Center
Tue 06:19:29 PM 45.4764 -113.2564 340° North 459 528 32,000  Level Salt Center
Tue 06:20:30 PM 45.5911 -113.3211 338° Northwest 461 531 32,000 -732 Level Salt Center
Tue 06:21:32 PM 45.7236 -113.3967 338° Northwest 460 529 30,500 -2,226 Descending Salt Center
Tue 06:22:34 PM 45.8394 -113.4619 339° North 465 535 27,400 -3,073 Descending Salt Center
Tue 06:23:35 PM 45.9575 -113.5275 339° North 462 532 24,200 -2,976 Descending Salt Center
Tue 06:24:37 PM 46.0700 -113.5947 337° Northwest 440 506 21,300 -2,976 Descending Salt Center
Tue 06:25:38 PM 46.1906 -113.6653 338° Northwest 421 484 18,100 -2,927 Descending Salt Center
Tue 06:26:40 PM 46.3014 -113.7283 339° North 401 461 15,300 -1,512 Descending Salt Center
Tue 06:27:41 PM 46.3919 -113.7842 337° Northwest 353 406 15,000 -683 Descending Salt Center
Tue 06:28:43 PM 46.4778 -113.8325 339° North 334 384 13,900 -1,463 Descending Salt Center
Tue 06:29:44 PM 46.5672 -113.8844 338° Northwest 324 373 12,000 -1,805 Descending Salt Center
Tue 06:30:46 PM 46.6461 -113.9306 338° Northwest 309 356 10,200 -1,463 Descending Salt Center
Tue 06:31:47 PM 46.7208 -113.9747 338° Northwest 294 338 9,000 -976 Descending Salt Center
Tue 06:32:49 PM 46.7894 -114.0033 344° North 245 282 8,200 -1,561 Descending Salt Center
Tue 06:33:50 PM 46.8489 -114.0022 North 217 250 5,800 -1,951 Descending Salt Center
Tue 06:34:52 PM 46.8867 -114.0400 326° Northwest 167 192 4,200 -1,220 Descending Salt Center
Tue 06:35:53 PM 46.9125 -114.0858 310° West 150 173 3,300 -885 Descending Salt Center

Login

Don't have an account? Register now (free) for customized features, flight alerts, and more!